KPNC/PNC METAR and TAF weather

Enter ICAO airport designator
Station Type Date Time Source
KPNC METAR 2022/01/26 13:53 UTC NOAA

KPNC 261353Z AUTO 09005KT 10SM OVC085 M06/M17 A3048 RMK AO2 SLP331 T10611167


Station Type Date Time Source
KPNC Decoded METAR 2022/01/26 13:53 UTC NOAA

PONCA CITY MUNICIPAL AIRPORT, OK, United States (KPNC) 36-44N 97-06W 308M
Jan 26, 2022 - 08:53 AM EST / 2022.01.26 1353 UTC
Wind: from the E (090 degrees) at 6 MPH (5 KT):0
Visibility: 10 mile(s):0
Sky conditions: overcast
Temperature: 21.0 F (-6.1 C)
Windchill: 14 F (-10 C):1
Dew Point: 1.9 F (-16.7 C)
Relative Humidity: 42%
Pressure (altimeter): 30.48 in. Hg (1032 hPa)
ob: KPNC 261353Z AUTO 09005KT 10SM OVC085 M06/M17 A3048 RMK AO2 SLP331 T10611167
cycle: 14

Station Type Date Time Source
KPNC TAF 2022/01/26 12:22 UTC NOAA

TAF KPNC 261120Z 2612/2712 08006KT P6SM BKN080
FM261800 17006KT P6SM BKN080
FM262200 19010KT P6SM OVC050
FM270200 19006KT P6SM OVC030

Example: see airport list